Time;durP1;ratioP1;P1;durP2;ratioP2;P2;SDS_P1;SDS_P2;PMS_P1;PMS_P2;Temp;Humidity;BMP_temperature;BMP_pressure;BME280_temperature;BME280_humidity;BME280_pressure;Samples;Min_cycle;Max_cycle;Signal;HPM_P1;HPM_P2
2023/05/14 00:01:38;;;;;;;46.55;35.88;;;16.40;99.90;;;;;;4986078;28;20853;-33
2023/05/14 00:04:05;;;;;;;37.72;32.63;;;16.50;99.90;;;;;;4985767;28;20245;-33
2023/05/14 00:06:32;;;;;;;37.42;31.75;;;16.40;99.90;;;;;;4967873;28;20202;-33
2023/05/14 00:09:05;;;;;;;39.67;31.38;;;16.40;99.90;;;;;;4984411;28;20217;-33
2023/05/14 00:11:37;;;;;;;38.15;29.70;;;16.40;99.90;;;;;;4985742;28;20738;-33
2023/05/14 00:14:04;;;;;;;39.63;32.53;;;16.30;99.90;;;;;;4984360;28;20246;-33
2023/05/14 00:16:31;;;;;;;37.25;32.13;;;16.30;99.90;;;;;;5000434;28;20202;-33
2023/05/14 00:19:05;;;;;;;35.78;30.98;;;16.30;99.90;;;;;;4984024;28;20253;-33
2023/05/14 00:21:33;;;;;;;36.65;29.88;;;16.30;99.90;;;;;;4985613;28;20696;-34
2023/05/14 00:24:05;;;;;;;41.42;31.10;;;16.20;99.90;;;;;;4985659;28;20205;-33
2023/05/14 00:26:32;;;;;;;41.58;33.42;;;16.30;99.90;;;;;;4985763;28;20240;-33
2023/05/14 00:29:01;;;;;;;37.67;30.52;;;16.30;99.90;;;;;;4984486;28;20206;-33
2023/05/14 00:31:29;;;;;;;39.45;31.60;;;16.20;99.90;;;;;;4983825;28;20241;-33
2023/05/14 00:34:03;;;;;;;39.78;32.15;;;16.20;99.90;;;;;;5001274;28;20268;-33
2023/05/14 00:36:33;;;;;;;45.92;34.88;;;16.20;99.90;;;;;;5003402;28;20213;-33
2023/05/14 00:39:03;;;;;;;38.20;32.90;;;16.20;99.90;;;;;;5003578;28;20276;-33
2023/05/14 00:41:32;;;;;;;40.53;33.83;;;16.10;99.90;;;;;;5003576;28;20420;-33
2023/05/14 00:44:04;;;;;;;44.70;33.30;;;16.20;99.90;;;;;;5003271;28;20206;-33
2023/05/14 00:46:32;;;;;;;37.90;31.83;;;16.20;99.90;;;;;;5004440;28;20202;-33
2023/05/14 00:48:59;;;;;;;41.25;33.72;;;16.20;99.90;;;;;;5004831;28;20229;-33
2023/05/14 00:51:29;;;;;;;42.45;34.88;;;16.10;99.90;;;;;;5004700;28;20197;-33
2023/05/14 00:54:01;;;;;;;43.25;33.97;;;16.10;99.90;;;;;;5003254;28;20205;-33
2023/05/14 00:56:36;;;;;;;45.93;35.00;;;16.10;99.90;;;;;;5003271;28;20329;-33
2023/05/14 00:59:05;;;;;;;41.05;34.60;;;16.10;99.90;;;;;;4989730;28;20332;-33
2023/05/14 01:01:34;;;;;;;47.28;35.53;;;16.00;99.90;;;;;;4985442;28;20202;-33
2023/05/14 01:04:05;;;;;;;37.88;33.78;;;16.00;99.90;;;;;;4991431;28;20252;-33
2023/05/14 01:06:44;;;;;;;44.78;39.88;;;16.00;99.90;;;;;;4998862;28;20393;-33
2023/05/14 01:09:24;;;;;;;43.50;37.13;;;16.20;99.90;;;;;;4997051;28;20209;-36
2023/05/14 01:12:06;;;;;;;45.70;36.67;;;16.10;99.90;;;;;;5004754;28;20659;-32
2023/05/14 01:14:51;;;;;;;48.50;37.45;;;16.10;99.90;;;;;;5004189;28;20229;-33
2023/05/14 01:17:21;;;;;;;47.88;37.85;;;16.00;99.90;;;;;;4993794;28;20288;-32
2023/05/14 01:19:56;;;;;;;54.08;41.03;;;16.00;99.90;;;;;;4999232;28;20312;-32
2023/05/14 01:22:23;;;;;;;52.05;41.97;;;15.90;99.90;;;;;;5008314;28;20211;-32
2023/05/14 01:24:53;;;;;;;52.58;39.90;;;15.90;99.90;;;;;;5008126;28;20220;-33
2023/05/14 01:27:40;;;;;;;56.13;42.60;;;15.80;99.90;;;;;;5006659;28;20225;-33
2023/05/14 01:30:21;;;;;;;51.13;39.38;;;15.80;99.90;;;;;;5006888;28;20569;-32
2023/05/14 01:32:55;;;;;;;53.92;41.92;;;15.70;99.90;;;;;;4998465;28;20280;-32
2023/05/14 01:35:26;;;;;;;54.20;42.47;;;15.70;99.90;;;;;;4986890;28;20628;-32
2023/05/14 01:38:00;;;;;;;56.87;43.80;;;15.70;99.90;;;;;;4989217;28;20775;-33
2023/05/14 01:40:34;;;;;;;58.00;43.83;;;15.60;99.90;;;;;;4988504;28;20246;-32
2023/05/14 01:43:07;;;;;;;60.58;46.67;;;15.60;99.90;;;;;;4988745;28;20659;-32
2023/05/14 01:45:35;;;;;;;59.17;43.60;;;15.60;99.90;;;;;;4971223;28;20296;-32
2023/05/14 01:48:05;;;;;;;57.78;43.65;;;15.60;99.90;;;;;;4988346;28;20249;-32
2023/05/14 01:50:32;;;;;;;53.63;47.78;;;15.50;99.90;;;;;;4985375;28;20405;-32
2023/05/14 01:53:02;;;;;;;55.53;44.28;;;15.70;99.90;;;;;;4987307;28;20210;-32
2023/05/14 01:55:34;;;;;;;56.00;45.58;;;15.70;99.90;;;;;;4988585;28;20233;-32
2023/05/14 01:58:02;;;;;;;56.50;42.33;;;15.60;99.90;;;;;;4970389;28;20720;-32
2023/05/14 02:00:29;;;;;;;55.47;42.57;;;15.60;99.90;;;;;;4988534;28;20662;-32
2023/05/14 02:03:01;;;;;;;55.95;43.72;;;15.50;99.90;;;;;;4988082;28;20222;-32
2023/05/14 02:05:28;;;;;;;55.30;43.73;;;15.50;99.90;;;;;;4970494;28;20293;-32
2023/05/14 02:07:55;;;;;;;60.07;45.53;;;15.50;99.90;;;;;;4986836;28;20253;-32
2023/05/14 02:10:27;;;;;;;60.95;45.10;;;15.40;99.90;;;;;;4988624;28;20233;-33
2023/05/14 02:12:55;;;;;;;60.63;44.87;;;15.40;99.90;;;;;;4986422;28;20321;-33
2023/05/14 02:15:24;;;;;;;53.15;43.03;;;15.30;99.90;;;;;;4986712;28;20638;-33
2023/05/14 02:17:56;;;;;;;61.47;45.37;;;15.30;99.90;;;;;;4986150;28;20289;-32
2023/05/14 02:20:28;;;;;;;63.17;46.23;;;15.30;99.90;;;;;;4986375;28;20230;-33
2023/05/14 02:23:00;;;;;;;66.03;47.43;;;15.30;99.90;;;;;;4987753;28;20197;-32
2023/05/14 02:25:29;;;;;;;62.37;45.87;;;15.20;99.90;;;;;;4986586;28;20292;-33
2023/05/14 02:27:57;;;;;;;60.13;45.27;;;15.20;99.90;;;;;;4996444;28;20236;-33
2023/05/14 02:30:26;;;;;;;57.75;44.40;;;15.20;99.90;;;;;;5006696;28;20701;-33
2023/05/14 02:32:53;;;;;;;68.35;48.65;;;15.20;99.90;;;;;;5005903;28;20292;-32
2023/05/14 02:35:21;;;;;;;64.35;46.00;;;15.20;99.90;;;;;;5005526;28;20735;-33
2023/05/14 02:37:51;;;;;;;64.70;45.22;;;15.20;99.90;;;;;;5005835;28;20233;-32
2023/05/14 02:40:20;;;;;;;62.43;46.57;;;15.20;99.90;;;;;;5005485;28;20227;-33
2023/05/14 02:42:52;;;;;;;64.63;47.83;;;15.20;99.90;;;;;;5005336;28;20189;-33
2023/05/14 02:45:20;;;;;;;64.07;46.45;;;15.20;99.90;;;;;;5004679;28;20324;-32
2023/05/14 02:47:49;;;;;;;61.23;45.40;;;15.10;99.90;;;;;;5007088;28;20209;-33
2023/05/14 02:50:19;;;;;;;67.15;46.95;;;15.10;99.90;;;;;;5007063;28;20248;-33
2023/05/14 02:52:48;;;;;;;64.03;47.27;;;15.20;99.90;;;;;;5005888;28;20214;-32
2023/05/14 02:55:18;;;;;;;63.97;47.97;;;15.20;99.90;;;;;;5004974;28;20300;-32
2023/05/14 02:57:45;;;;;;;61.10;43.20;;;15.20;99.90;;;;;;5005080;28;20241;-33
2023/05/14 03:00:15;;;;;;;58.15;43.60;;;15.20;99.90;;;;;;5005375;28;20328;-33
2023/05/14 03:02:47;;;;;;;66.00;46.93;;;15.10;99.90;;;;;;5004827;28;20283;-33
2023/05/14 03:05:15;;;;;;;63.23;46.27;;;15.10;99.90;;;;;;5007000;28;20675;-33
2023/05/14 03:07:42;;;;;;;60.77;45.63;;;15.10;99.90;;;;;;5005059;28;20245;-33
2023/05/14 03:10:09;;;;;;;62.13;45.88;;;15.20;99.90;;;;;;5004744;28;20202;-33
2023/05/14 03:12:37;;;;;;;61.90;47.50;;;15.10;99.90;;;;;;5006937;28;20224;-33
2023/05/14 03:15:07;;;;;;;65.75;46.40;;;15.20;99.90;;;;;;4994676;28;20292;-33
2023/05/14 03:17:41;;;;;;;63.15;47.08;;;15.10;99.90;;;;;;4985114;28;20202;-33
2023/05/14 03:20:09;;;;;;;59.72;43.58;;;15.10;99.90;;;;;;4986949;28;20837;-32
2023/05/14 03:22:36;;;;;;;59.00;42.73;;;15.10;99.90;;;;;;4969298;28;20272;-33
2023/05/14 03:25:04;;;;;;;67.85;48.28;;;15.10;99.90;;;;;;4985257;28;20768;-33
2023/05/14 03:27:33;;;;;;;57.80;42.93;;;15.10;99.90;;;;;;4969215;28;20202;-33
2023/05/14 03:30:06;;;;;;;58.20;42.63;;;15.10;99.90;;;;;;4985175;28;20272;-33
2023/05/14 03:32:33;;;;;;;62.95;44.35;;;15.10;99.90;;;;;;4986331;28;21066;-32
2023/05/14 03:35:05;;;;;;;60.72;44.50;;;15.20;99.90;;;;;;4987105;28;20253;-33
2023/05/14 03:37:35;;;;;;;67.60;45.27;;;15.20;99.90;;;;;;4987008;28;20314;-32
2023/05/14 03:40:03;;;;;;;71.47;48.80;;;15.10;99.90;;;;;;4986688;28;20230;-33
2023/05/14 03:42:35;;;;;;;64.95;46.85;;;15.10;99.90;;;;;;4985439;28;20237;-33
2023/05/14 03:45:02;;;;;;;59.40;44.13;;;15.00;99.90;;;;;;4986315;28;20289;-33
2023/05/14 03:47:32;;;;;;;65.83;46.40;;;15.00;99.90;;;;;;4984736;28;20276;-33
2023/05/14 03:49:59;;;;;;;60.83;43.70;;;15.10;99.90;;;;;;4986672;28;20218;-33
2023/05/14 03:52:29;;;;;;;62.80;45.65;;;15.00;99.90;;;;;;4985320;28;20310;-32
2023/05/14 03:55:01;;;;;;;62.50;45.17;;;15.00;99.90;;;;;;4986293;28;20312;-32
2023/05/14 03:57:28;;;;;;;57.00;42.97;;;15.00;99.90;;;;;;4985955;28;20299;-33
2023/05/14 03:59:55;;;;;;;61.85;42.72;;;15.00;99.90;;;;;;4984365;28;20222;-33
2023/05/14 04:02:22;;;;;;;61.53;44.73;;;15.00;99.90;;;;;;4985782;28;20221;-33
2023/05/14 04:04:49;;;;;;;64.00;44.83;;;15.00;99.90;;;;;;4984371;28;20218;-33
2023/05/14 04:07:17;;;;;;;64.53;44.50;;;15.00;99.90;;;;;;4986099;28;20212;-33
2023/05/14 04:09:44;;;;;;;60.47;43.97;;;15.00;99.90;;;;;;4984730;28;20300;-33
2023/05/14 04:12:11;;;;;;;60.78;45.05;;;15.00;99.90;;;;;;4984370;28;20218;-32
2023/05/14 04:14:39;;;;;;;64.80;46.50;;;15.00;99.90;;;;;;4984135;28;20220;-33
2023/05/14 04:17:08;;;;;;;58.53;41.97;;;15.00;99.90;;;;;;4984349;28;20293;-33
2023/05/14 04:19:35;;;;;;;62.67;44.10;;;15.00;99.90;;;;;;4984118;28;20317;-33
2023/05/14 04:22:02;;;;;;;67.97;47.80;;;15.00;99.90;;;;;;4985740;28;20723;-33
2023/05/14 04:24:32;;;;;;;62.75;45.03;;;15.00;99.90;;;;;;4968084;28;20288;-33
2023/05/14 04:26:59;;;;;;;65.00;43.73;;;15.00;99.90;;;;;;4994764;28;20209;-33
2023/05/14 04:29:26;;;;;;;65.73;45.97;;;15.00;99.90;;;;;;5003594;28;20672;-33
2023/05/14 04:31:56;;;;;;;61.58;44.00;;;15.00;99.90;;;;;;5003523;28;20216;-33
2023/05/14 04:34:25;;;;;;;69.68;46.90;;;15.00;99.90;;;;;;5004979;28;20632;-33
2023/05/14 04:36:57;;;;;;;66.72;46.47;;;14.90;99.90;;;;;;5003551;28;20734;-33
2023/05/14 04:39:26;;;;;;;59.55;42.63;;;15.00;99.90;;;;;;5003284;28;20229;-33
2023/05/14 04:41:54;;;;;;;60.88;43.17;;;14.90;99.90;;;;;;5003740;28;20212;-33
2023/05/14 04:44:23;;;;;;;56.20;40.17;;;14.90;99.90;;;;;;5002360;28;20204;-33
2023/05/14 04:46:51;;;;;;;63.57;43.80;;;14.90;99.90;;;;;;5003366;28;20205;-33
2023/05/14 04:49:18;;;;;;;63.57;44.60;;;14.90;99.90;;;;;;5003225;28;20304;-33
2023/05/14 04:51:47;;;;;;;61.20;43.43;;;14.90;99.90;;;;;;5003321;28;20683;-33
2023/05/14 04:54:14;;;;;;;58.30;43.35;;;14.90;99.90;;;;;;5003590;28;20615;-33
2023/05/14 04:56:46;;;;;;;59.50;42.28;;;14.90;99.90;;;;;;5004751;28;20315;-33
2023/05/14 04:59:18;;;;;;;62.85;42.67;;;14.90;99.90;;;;;;5004782;28;20210;-33
2023/05/14 05:01:45;;;;;;;54.67;40.88;;;14.90;99.90;;;;;;5003837;28;20199;-33
2023/05/14 05:04:19;;;;;;;56.95;40.42;;;14.90;99.90;;;;;;5004518;28;20213;-33
2023/05/14 05:06:47;;;;;;;56.03;38.77;;;14.90;99.90;;;;;;5004896;28;20198;-33
2023/05/14 05:09:15;;;;;;;61.35;42.97;;;15.00;99.90;;;;;;5003339;28;20206;-33
2023/05/14 05:11:49;;;;;;;52.60;39.60;;;15.00;99.90;;;;;;5004689;28;20216;-33
2023/05/14 05:14:18;;;;;;;53.40;38.92;;;15.00;99.90;;;;;;4998434;28;20240;-33
2023/05/14 05:16:48;;;;;;;59.42;41.00;;;15.00;99.90;;;;;;4983376;28;20268;-33
2023/05/14 05:19:17;;;;;;;60.65;41.92;;;15.00;99.90;;;;;;5003901;28;20233;-33
2023/05/14 05:21:55;;;;;;;60.07;41.93;;;15.10;99.90;;;;;;5003214;28;20246;-33
2023/05/14 05:24:24;;;;;;;58.42;40.92;;;15.10;99.90;;;;;;5004391;28;20292;-33
2023/05/14 05:26:54;;;;;;;62.87;42.40;;;15.10;99.90;;;;;;5003099;28;20229;-34
2023/05/14 05:29:23;;;;;;;55.53;41.10;;;15.10;99.90;;;;;;5004837;28;20630;-33
2023/05/14 05:31:53;;;;;;;59.20;39.63;;;15.10;99.90;;;;;;5004559;28;20202;-33
2023/05/14 05:34:20;;;;;;;58.90;41.03;;;15.10;99.90;;;;;;5004104;28;20215;-33
2023/05/14 05:36:50;;;;;;;53.53;39.55;;;15.20;99.90;;;;;;5004489;28;20237;-33
2023/05/14 05:39:17;;;;;;;58.88;41.75;;;15.20;99.90;;;;;;5004503;28;20221;-33
2023/05/14 05:41:46;;;;;;;57.97;39.30;;;15.20;99.90;;;;;;5004637;28;20753;-33
2023/05/14 05:44:14;;;;;;;54.13;37.17;;;15.20;99.90;;;;;;5004519;28;20200;-33
2023/05/14 05:46:43;;;;;;;52.83;40.22;;;15.30;99.90;;;;;;5004520;28;20704;-33
2023/05/14 05:49:10;;;;;;;59.37;41.83;;;15.30;99.90;;;;;;5004265;28;20201;-33
2023/05/14 05:51:37;;;;;;;60.20;42.25;;;15.30;99.90;;;;;;5001941;28;20212;-34
2023/05/14 05:54:07;;;;;;;54.37;39.77;;;15.40;99.90;;;;;;5002584;28;20232;-33
2023/05/14 05:56:34;;;;;;;51.47;38.60;;;15.40;99.90;;;;;;5004070;28;20344;-33
2023/05/14 05:59:03;;;;;;;54.45;38.00;;;15.40;99.90;;;;;;5002475;28;20210;-34
2023/05/14 06:01:33;;;;;;;55.35;39.33;;;15.50;99.90;;;;;;5004436;28;20231;-33
2023/05/14 06:04:00;;;;;;;52.60;38.72;;;15.50;99.90;;;;;;5004197;28;20198;-33
2023/05/14 06:06:31;;;;;;;56.30;38.10;;;15.50;99.90;;;;;;5007961;28;20575;-34
2023/05/14 06:09:00;;;;;;;52.78;38.28;;;15.60;99.90;;;;;;5006871;28;20297;-34
2023/05/14 06:11:27;;;;;;;55.97;39.17;;;15.60;99.90;;;;;;5008116;28;20237;-34
2023/05/14 06:13:57;;;;;;;55.60;40.57;;;15.60;99.90;;;;;;5004030;28;20233;-33
2023/05/14 06:16:26;;;;;;;49.87;37.40;;;15.60;99.90;;;;;;4987802;28;20225;-33
2023/05/14 06:18:54;;;;;;;51.35;38.08;;;15.70;99.90;;;;;;4987315;28;20206;-33
2023/05/14 06:21:22;;;;;;;53.63;37.37;;;15.70;99.90;;;;;;4987836;28;20270;-33
2023/05/14 06:23:49;;;;;;;51.70;36.70;;;15.70;99.90;;;;;;4987977;28;20228;-33
2023/05/14 06:26:16;;;;;;;53.90;38.28;;;15.80;99.90;;;;;;4988574;28;20249;-34
2023/05/14 06:28:46;;;;;;;47.05;35.15;;;15.80;99.90;;;;;;4986404;28;21184;-33
2023/05/14 06:31:13;;;;;;;49.58;36.97;;;15.80;99.90;;;;;;4987890;28;20206;-33
2023/05/14 06:33:40;;;;;;;52.30;38.03;;;15.80;99.90;;;;;;4986110;28;20298;-33
2023/05/14 06:36:08;;;;;;;53.63;37.58;;;15.80;99.90;;;;;;4986025;28;20226;-33
2023/05/14 06:38:37;;;;;;;56.63;39.50;;;15.80;99.90;;;;;;4986022;28;20206;-33
2023/05/14 06:41:04;;;;;;;45.20;35.78;;;15.80;99.90;;;;;;4985817;28;20234;-33
2023/05/14 06:43:31;;;;;;;49.17;34.80;;;15.80;99.90;;;;;;4986386;28;20213;-33
2023/05/14 06:45:59;;;;;;;52.58;37.42;;;15.80;99.90;;;;;;4987428;28;20229;-33
2023/05/14 06:48:29;;;;;;;58.45;39.67;;;15.80;99.90;;;;;;4969673;28;20226;-33
2023/05/14 06:50:59;;;;;;;51.03;36.65;;;15.80;99.90;;;;;;4985654;28;20390;-33
2023/05/14 06:53:28;;;;;;;51.35;36.75;;;15.90;99.90;;;;;;4985700;28;20708;-33
2023/05/14 06:55:58;;;;;;;47.67;35.00;;;15.90;99.90;;;;;;4987340;28;20212;-33
2023/05/14 06:58:25;;;;;;;52.15;37.35;;;15.80;99.90;;;;;;4985858;28;20320;-33
2023/05/14 07:00:54;;;;;;;53.22;37.22;;;15.80;99.90;;;;;;4987444;28;20234;-33
2023/05/14 07:03:22;;;;;;;48.42;36.35;;;15.80;99.90;;;;;;4985510;28;20218;-33
2023/05/14 07:05:53;;;;;;;52.10;36.47;;;15.80;99.90;;;;;;4987257;28;20944;-33
2023/05/14 07:08:20;;;;;;;57.35;37.92;;;15.70;99.90;;;;;;4985488;28;20206;-33
2023/05/14 07:10:50;;;;;;;47.13;35.93;;;15.70;99.90;;;;;;4985343;28;20730;-33
2023/05/14 07:13:17;;;;;;;51.63;37.07;;;15.70;99.90;;;;;;4985626;28;20586;-34
2023/05/14 07:15:44;;;;;;;53.47;35.65;;;15.70;99.90;;;;;;4986597;28;20287;-34
2023/05/14 07:18:11;;;;;;;49.63;36.67;;;15.70;99.90;;;;;;4985685;28;20596;-33
2023/05/14 07:20:38;;;;;;;48.63;34.30;;;15.70;99.90;;;;;;4985137;28;20222;-33
2023/05/14 07:23:05;;;;;;;46.22;34.00;;;15.80;99.90;;;;;;4985218;28;20199;-33
2023/05/14 07:25:35;;;;;;;56.10;37.25;;;15.80;99.90;;;;;;4986600;28;20321;-33
2023/05/14 07:28:06;;;;;;;50.08;36.28;;;15.80;99.90;;;;;;4986554;28;20221;-33
2023/05/14 07:30:35;;;;;;;51.87;38.00;;;15.90;99.90;;;;;;4985276;28;20228;-33
2023/05/14 07:33:07;;;;;;;49.20;35.90;;;15.90;99.90;;;;;;4985548;28;20297;-33
2023/05/14 07:35:36;;;;;;;55.60;39.08;;;15.90;99.90;;;;;;4985128;28;20312;-33
2023/05/14 07:38:06;;;;;;;53.53;39.15;;;15.90;99.90;;;;;;4986667;28;20213;-33
2023/05/14 07:40:33;;;;;;;51.38;38.35;;;16.00;99.90;;;;;;4986601;28;20398;-33
2023/05/14 07:43:01;;;;;;;57.45;38.92;;;16.00;99.90;;;;;;4986820;28;20284;-33
2023/05/14 07:45:28;;;;;;;52.45;38.45;;;16.00;99.90;;;;;;4987074;28;20733;-33
2023/05/14 07:47:57;;;;;;;56.65;38.45;;;16.10;99.90;;;;;;4985106;28;20289;-33
2023/05/14 07:50:25;;;;;;;57.13;39.88;;;16.10;99.90;;;;;;4986951;28;20205;-33
2023/05/14 07:52:54;;;;;;;50.22;35.00;;;16.10;99.90;;;;;;4986043;28;20542;-33
2023/05/14 07:55:27;;;;;;;53.83;38.43;;;16.20;99.90;;;;;;4984595;28;20734;-33
2023/05/14 07:57:54;;;;;;;65.07;41.35;;;16.20;99.90;;;;;;4984689;28;20253;-33
2023/05/14 08:00:23;;;;;;;54.55;38.75;;;16.30;99.90;;;;;;4986641;28;20201;-32
2023/05/14 08:02:59;;;;;;;57.38;40.00;;;16.30;99.90;;;;;;4986813;28;20760;-33
2023/05/14 08:05:28;;;;;;;58.13;40.53;;;16.30;99.90;;;;;;4986628;28;20615;-33
2023/05/14 08:07:55;;;;;;;58.38;40.13;;;16.30;99.90;;;;;;4985177;28;20206;-33
2023/05/14 08:10:23;;;;;;;55.60;38.83;;;16.40;99.90;;;;;;4986234;28;20198;-33
2023/05/14 08:12:52;;;;;;;58.70;37.72;;;16.40;99.90;;;;;;4984735;28;20202;-33
2023/05/14 08:15:20;;;;;;;56.08;39.95;;;16.40;99.90;;;;;;4985900;28;20324;-33
2023/05/14 08:17:47;;;;;;;55.65;40.08;;;16.40;99.90;;;;;;4985997;28;20309;-33
2023/05/14 08:20:14;;;;;;;51.95;36.95;;;16.50;99.90;;;;;;4985727;28;20292;-33
2023/05/14 08:22:41;;;;;;;49.10;36.83;;;16.50;99.90;;;;;;4986044;28;20293;-34
2023/05/14 08:25:09;;;;;;;54.10;37.10;;;16.50;99.90;;;;;;4968697;28;20709;-33
2023/05/14 08:27:36;;;;;;;57.42;39.75;;;16.60;99.90;;;;;;4985997;28;20217;-34
2023/05/14 08:30:05;;;;;;;55.90;39.85;;;16.60;99.90;;;;;;4967962;28;20234;-34
2023/05/14 08:32:38;;;;;;;56.70;40.20;;;16.70;99.90;;;;;;4985628;28;20206;-34
2023/05/14 08:35:05;;;;;;;51.25;36.97;;;16.80;99.90;;;;;;4985704;28;20210;-34
2023/05/14 08:37:35;;;;;;;53.50;40.30;;;16.80;99.90;;;;;;4985493;28;20592;-33
2023/05/14 08:40:06;;;;;;;56.67;41.05;;;16.90;99.90;;;;;;4985139;28;20240;-33
2023/05/14 08:42:36;;;;;;;64.38;42.88;;;17.00;99.90;;;;;;4984248;28;20226;-33
2023/05/14 08:45:07;;;;;;;57.03;42.70;;;17.00;99.90;;;;;;4984058;28;20210;-34
2023/05/14 08:47:36;;;;;;;59.22;41.08;;;17.00;99.90;;;;;;4983593;28;20186;-33
2023/05/14 08:50:05;;;;;;;59.38;42.90;;;17.10;99.90;;;;;;4985111;28;20229;-33
2023/05/14 08:52:33;;;;;;;58.05;41.90;;;17.10;99.90;;;;;;4985756;28;20205;-33
2023/05/14 08:55:04;;;;;;;55.20;42.40;;;17.10;99.90;;;;;;4985337;28;20246;-33
2023/05/14 08:57:41;;;;;;;61.85;43.45;;;17.20;99.90;;;;;;4984944;28;20237;-33
2023/05/14 09:00:11;;;;;;;56.83;41.40;;;17.30;99.90;;;;;;4984233;28;20233;-33
2023/05/14 09:02:43;;;;;;;57.22;43.38;;;17.30;99.90;;;;;;4967837;28;20257;-34
2023/05/14 09:05:13;;;;;;;50.15;40.17;;;17.30;99.90;;;;;;4983784;28;20706;-34
2023/05/14 09:07:42;;;;;;;51.63;39.92;;;17.40;99.90;;;;;;4985549;28;20205;-33
2023/05/14 09:10:16;;;;;;;50.40;40.28;;;17.40;99.90;;;;;;4983243;28;20202;-34
2023/05/14 09:12:47;;;;;;;54.47;40.60;;;17.40;99.90;;;;;;4985180;28;20213;-34
2023/05/14 09:15:17;;;;;;;49.47;39.45;;;17.50;99.90;;;;;;4986231;28;20283;-34
2023/05/14 09:17:49;;;;;;;49.88;39.10;;;17.60;99.90;;;;;;5004394;28;20205;-33
2023/05/14 09:20:19;;;;;;;53.25;40.15;;;17.60;99.90;;;;;;5002798;28;20332;-34
2023/05/14 09:22:46;;;;;;;52.20;40.78;;;17.60;99.90;;;;;;5002868;28;20485;-34
2023/05/14 09:25:13;;;;;;;55.15;40.35;;;17.60;99.90;;;;;;5003099;28;20215;-34
2023/05/14 09:27:40;;;;;;;48.45;38.47;;;17.60;99.90;;;;;;5004415;28;20603;-33
2023/05/14 09:30:12;;;;;;;45.97;37.78;;;17.70;99.90;;;;;;5002930;28;20787;-34
2023/05/14 09:32:44;;;;;;;50.78;40.65;;;17.70;99.90;;;;;;4998816;28;20464;-34
2023/05/14 09:35:16;;;;;;;50.67;40.63;;;17.80;99.90;;;;;;4984864;28;20640;-34
2023/05/14 09:37:48;;;;;;;47.20;41.03;;;17.80;99.90;;;;;;4984883;28;20241;-33
2023/05/14 09:40:17;;;;;;;47.65;38.22;;;17.80;99.90;;;;;;4985549;28;20561;-33
2023/05/14 09:42:48;;;;;;;51.70;40.92;;;17.80;99.90;;;;;;4986709;28;20226;-33
2023/05/14 09:45:18;;;;;;;47.90;39.17;;;17.80;99.90;;;;;;4987041;28;20214;-33
2023/05/14 09:47:47;;;;;;;48.25;38.83;;;17.80;99.90;;;;;;4988655;28;20281;-33
2023/05/14 09:50:17;;;;;;;45.38;40.08;;;17.80;99.90;;;;;;4971679;28;20221;-33
2023/05/14 09:52:47;;;;;;;44.67;37.22;;;17.90;99.90;;;;;;4987518;28;20743;-32
2023/05/14 09:55:15;;;;;;;45.00;36.25;;;17.90;99.90;;;;;;4988677;28;20322;-33
2023/05/14 09:57:44;;;;;;;45.47;38.47;;;17.90;99.90;;;;;;4986991;28;20238;-33
2023/05/14 10:00:12;;;;;;;41.80;36.90;;;17.90;99.90;;;;;;4986830;28;20194;-33
2023/05/14 10:02:41;;;;;;;39.30;34.92;;;17.90;99.90;;;;;;4986748;28;20240;-33
2023/05/14 10:05:09;;;;;;;39.72;35.42;;;17.90;99.90;;;;;;4988477;28;20218;-33
2023/05/14 10:07:41;;;;;;;42.45;36.78;;;18.00;99.90;;;;;;4989191;28;20632;-33
2023/05/14 10:10:14;;;;;;;44.53;36.78;;;18.10;99.90;;;;;;4988674;28;20281;-33
2023/05/14 10:12:52;;;;;;;49.80;40.00;;;18.10;99.90;;;;;;4986987;28;20321;-33
2023/05/14 10:15:25;;;;;;;46.28;38.50;;;18.20;99.90;;;;;;4986222;28;20210;-33
2023/05/14 10:17:57;;;;;;;49.20;41.63;;;18.20;99.90;;;;;;4986431;28;20245;-33
2023/05/14 10:20:26;;;;;;;41.88;37.33;;;18.30;99.90;;;;;;4986520;28;20260;-33
2023/05/14 10:22:57;;;;;;;44.30;36.53;;;18.30;99.90;;;;;;4988465;28;20689;-33
2023/05/14 10:25:27;;;;;;;47.75;39.42;;;18.30;99.90;;;;;;5005554;28;20197;-32
2023/05/14 10:27:56;;;;;;;45.83;39.83;;;18.30;99.90;;;;;;5006190;28;20722;-33
2023/05/14 10:30:28;;;;;;;44.90;38.50;;;18.30;99.90;;;;;;5005757;28;20233;-33
2023/05/14 10:33:08;;;;;;;46.17;37.85;;;18.40;99.90;;;;;;5007401;28;20229;-33
2023/05/14 10:35:59;;;;;;;42.38;37.78;;;18.40;99.90;;;;;;5006913;28;20205;-33
2023/05/14 10:38:37;;;;;;;42.33;37.58;;;18.40;99.90;;;;;;5005701;28;20219;-33
2023/05/14 10:41:07;;;;;;;51.90;43.22;;;18.50;99.90;;;;;;5004522;28;20647;-33
2023/05/14 10:43:39;;;;;;;46.58;39.83;;;18.50;99.90;;;;;;5005833;28;20695;-33
2023/05/14 10:46:08;;;;;;;41.53;36.10;;;18.60;99.90;;;;;;5006691;28;20287;-33
2023/05/14 10:48:37;;;;;;;40.67;35.95;;;18.60;99.90;;;;;;5005305;28;20758;-33
2023/05/14 10:51:11;;;;;;;44.70;37.20;;;18.60;99.90;;;;;;5006591;28;20244;-33
2023/05/14 10:53:44;;;;;;;43.55;38.25;;;18.70;99.90;;;;;;5007090;28;20634;-33
2023/05/14 10:56:13;;;;;;;47.83;38.38;;;18.70;99.90;;;;;;5005069;28;20210;-33
2023/05/14 10:58:49;;;;;;;41.95;36.05;;;18.80;99.90;;;;;;5003937;28;20237;-33
2023/05/14 11:01:23;;;;;;;41.55;37.05;;;18.80;99.90;;;;;;5006189;28;20233;-33
2023/05/14 11:03:52;;;;;;;47.50;39.80;;;18.90;99.90;;;;;;5006225;28;20221;-33
2023/05/14 11:06:20;;;;;;;41.47;36.47;;;18.90;99.90;;;;;;5004680;28;20257;-32
2023/05/14 11:08:50;;;;;;;42.15;37.53;;;18.90;99.90;;;;;;5004897;28;20200;-33
2023/05/14 11:11:20;;;;;;;41.53;34.75;;;18.90;99.90;;;;;;5006284;28;20755;-33
2023/05/14 11:13:49;;;;;;;38.53;34.35;;;18.90;99.90;;;;;;5002181;28;20790;-33
2023/05/14 11:16:17;;;;;;;41.72;35.17;;;18.90;99.90;;;;;;5006462;28;20213;-33
2023/05/14 11:19:01;;;;;;;40.65;35.17;;;18.90;99.90;;;;;;5004519;28;20216;-33
2023/05/14 11:21:31;;;;;;;40.10;35.72;;;19.00;99.90;;;;;;5006287;28;20253;-33
2023/05/14 11:24:00;;;;;;;39.15;34.95;;;19.00;99.90;;;;;;5004651;28;20581;-33
2023/05/14 11:26:27;;;;;;;39.22;34.92;;;19.00;99.90;;;;;;5006132;28;20237;-33
2023/05/14 11:28:59;;;;;;;40.80;36.30;;;19.00;99.90;;;;;;5004592;28;20205;-33
2023/05/14 11:31:29;;;;;;;40.45;36.22;;;19.10;99.90;;;;;;5003557;28;20210;-33
2023/05/14 11:33:56;;;;;;;36.88;32.92;;;19.10;99.90;;;;;;5004396;28;20584;-34
2023/05/14 11:36:25;;;;;;;37.30;33.30;;;19.10;99.90;;;;;;5006158;28;20268;-34
2023/05/14 11:38:55;;;;;;;38.67;33.58;;;19.20;99.90;;;;;;5004366;28;20364;-33
2023/05/14 11:41:26;;;;;;;43.15;36.47;;;19.20;99.90;;;;;;5005805;28;20833;-33
2023/05/14 11:43:57;;;;;;;40.05;35.72;;;19.20;99.90;;;;;;5006075;28;20638;-34
2023/05/14 11:46:25;;;;;;;46.50;39.38;;;19.20;99.90;;;;;;5003662;28;20203;-33
2023/05/14 11:48:52;;;;;;;36.28;32.33;;;19.20;99.90;;;;;;5004570;28;20784;-33
2023/05/14 11:51:20;;;;;;;36.85;33.03;;;19.20;99.90;;;;;;5005690;28;20552;-33
2023/05/14 11:53:47;;;;;;;37.40;33.40;;;19.30;99.90;;;;;;5004259;28;20209;-33
2023/05/14 11:56:20;;;;;;;40.17;35.20;;;19.30;99.90;;;;;;5005155;28;20625;-33
2023/05/14 11:58:48;;;;;;;40.67;35.85;;;19.40;99.90;;;;;;5003688;28;20205;-33
2023/05/14 12:01:18;;;;;;;40.25;35.55;;;19.40;99.90;;;;;;5003447;28;20316;-33
2023/05/14 12:03:45;;;;;;;36.53;32.58;;;19.50;99.90;;;;;;5004697;28;20218;-33
2023/05/14 12:06:12;;;;;;;36.53;32.50;;;19.50;99.90;;;;;;5005048;28;20768;-33
2023/05/14 12:08:39;;;;;;;39.78;35.50;;;19.60;99.90;;;;;;5005433;28;20444;-33
2023/05/14 12:11:10;;;;;;;43.22;38.03;;;19.60;99.90;;;;;;5004947;28;20206;-33
2023/05/14 12:13:41;;;;;;;39.35;33.75;;;19.60;99.90;;;;;;4986007;28;20225;-33
2023/05/14 12:16:11;;;;;;;36.47;32.83;;;19.70;99.90;;;;;;4985515;28;20555;-33
2023/05/14 12:18:41;;;;;;;35.55;31.85;;;19.70;99.90;;;;;;4985932;28;20209;-33
2023/05/14 12:21:12;;;;;;;35.80;32.10;;;19.70;99.90;;;;;;4984076;28;20222;-33
2023/05/14 12:23:41;;;;;;;37.00;33.13;;;19.70;99.90;;;;;;4987019;28;20214;-33
2023/05/14 12:26:11;;;;;;;37.92;33.45;;;19.80;99.90;;;;;;4967853;28;20221;-33
2023/05/14 12:28:46;;;;;;;36.80;32.80;;;19.80;99.90;;;;;;4983881;28;20214;-33
2023/05/14 12:31:16;;;;;;;33.83;30.42;;;19.90;99.90;;;;;;4984493;28;20221;-33
2023/05/14 12:33:45;;;;;;;34.53;30.92;;;19.90;99.90;;;;;;4967977;28;20317;-33
2023/05/14 12:36:17;;;;;;;34.83;31.10;;;19.90;99.90;;;;;;4985450;28;20727;-33
2023/05/14 12:39:02;;;;;;;36.88;31.98;;;19.90;99.90;;;;;;4985317;28;20213;-33
2023/05/14 12:41:32;;;;;;;34.15;30.38;;;20.00;99.90;;;;;;4983782;28;20210;-33